sensor_id;sensor_type;location;lat;lon;timestamp;P1;durP1;ratioP1;P2;durP2;ratioP2
6177;SDS011;3122;48.208;11.174;2022-07-25T00:01:53;16.00;;;14.23;;
6177;SDS011;3122;48.208;11.174;2022-07-25T00:06:54;16.43;;;14.20;;
6177;SDS011;3122;48.208;11.174;2022-07-25T00:11:55;17.60;;;14.33;;
6177;SDS011;3122;48.208;11.174;2022-07-25T00:16:55;16.43;;;14.53;;
6177;SDS011;3122;48.208;11.174;2022-07-25T00:21:56;17.07;;;15.27;;
6177;SDS011;3122;48.208;11.174;2022-07-25T00:26:57;19.07;;;15.40;;
6177;SDS011;3122;48.208;11.174;2022-07-25T00:31:58;15.87;;;14.33;;
6177;SDS011;3122;48.208;11.174;2022-07-25T00:36:58;17.83;;;15.93;;
6177;SDS011;3122;48.208;11.174;2022-07-25T00:41:59;18.93;;;16.90;;
6177;SDS011;3122;48.208;11.174;2022-07-25T00:46:59;20.30;;;17.60;;
6177;SDS011;3122;48.208;11.174;2022-07-25T00:52:00;17.87;;;15.93;;
6177;SDS011;3122;48.208;11.174;2022-07-25T00:57:01;18.50;;;15.00;;
6177;SDS011;3122;48.208;11.174;2022-07-25T01:02:02;18.17;;;15.93;;
6177;SDS011;3122;48.208;11.174;2022-07-25T01:07:02;19.57;;;16.70;;
6177;SDS011;3122;48.208;11.174;2022-07-25T01:12:04;17.73;;;15.93;;
6177;SDS011;3122;48.208;11.174;2022-07-25T01:17:04;15.40;;;13.90;;
6177;SDS011;3122;48.208;11.174;2022-07-25T01:22:05;17.43;;;15.50;;
6177;SDS011;3122;48.208;11.174;2022-07-25T01:27:05;20.30;;;17.27;;
6177;SDS011;3122;48.208;11.174;2022-07-25T01:32:06;18.73;;;16.23;;
6177;SDS011;3122;48.208;11.174;2022-07-25T01:37:07;18.03;;;15.60;;
6177;SDS011;3122;48.208;11.174;2022-07-25T01:42:07;18.13;;;16.00;;
6177;SDS011;3122;48.208;11.174;2022-07-25T01:47:08;18.60;;;14.70;;
6177;SDS011;3122;48.208;11.174;2022-07-25T01:52:09;20.20;;;15.60;;
6177;SDS011;3122;48.208;11.174;2022-07-25T01:57:09;19.20;;;16.13;;
6177;SDS011;3122;48.208;11.174;2022-07-25T02:02:10;16.67;;;14.90;;
6177;SDS011;3122;48.208;11.174;2022-07-25T02:07:11;16.27;;;14.57;;
6177;SDS011;3122;48.208;11.174;2022-07-25T02:12:11;16.87;;;15.07;;
6177;SDS011;3122;48.208;11.174;2022-07-25T02:17:12;16.67;;;14.80;;
6177;SDS011;3122;48.208;11.174;2022-07-25T02:22:12;17.00;;;15.23;;
6177;SDS011;3122;48.208;11.174;2022-07-25T02:27:13;19.00;;;16.10;;
6177;SDS011;3122;48.208;11.174;2022-07-25T02:32:13;22.07;;;15.50;;
6177;SDS011;3122;48.208;11.174;2022-07-25T02:37:14;17.50;;;15.67;;
6177;SDS011;3122;48.208;11.174;2022-07-25T02:42:14;15.90;;;14.23;;
6177;SDS011;3122;48.208;11.174;2022-07-25T02:47:15;21.63;;;15.40;;
6177;SDS011;3122;48.208;11.174;2022-07-25T02:52:16;16.70;;;14.93;;
6177;SDS011;3122;48.208;11.174;2022-07-25T02:57:16;19.40;;;17.30;;
6177;SDS011;3122;48.208;11.174;2022-07-25T03:02:17;17.80;;;16.00;;
6177;SDS011;3122;48.208;11.174;2022-07-25T03:07:17;17.37;;;15.53;;
6177;SDS011;3122;48.208;11.174;2022-07-25T03:12:18;19.03;;;16.50;;
6177;SDS011;3122;48.208;11.174;2022-07-25T03:17:19;17.60;;;15.80;;
6177;SDS011;3122;48.208;11.174;2022-07-25T03:22:20;17.83;;;15.93;;
6177;SDS011;3122;48.208;11.174;2022-07-25T03:27:21;17.70;;;15.80;;
6177;SDS011;3122;48.208;11.174;2022-07-25T03:32:21;22.20;;;18.60;;
6177;SDS011;3122;48.208;11.174;2022-07-25T03:37:22;18.57;;;16.50;;
6177;SDS011;3122;48.208;11.174;2022-07-25T03:42:23;19.20;;;16.47;;
6177;SDS011;3122;48.208;11.174;2022-07-25T03:47:23;17.10;;;15.30;;
6177;SDS011;3122;48.208;11.174;2022-07-25T03:52:24;21.10;;;17.47;;
6177;SDS011;3122;48.208;11.174;2022-07-25T03:57:25;18.87;;;16.87;;
6177;SDS011;3122;48.208;11.174;2022-07-25T04:02:25;19.43;;;15.83;;
6177;SDS011;3122;48.208;11.174;2022-07-25T04:07:26;18.13;;;15.37;;
6177;SDS011;3122;48.208;11.174;2022-07-25T04:12:26;18.57;;;16.00;;
6177;SDS011;3122;48.208;11.174;2022-07-25T04:17:27;17.80;;;14.90;;
6177;SDS011;3122;48.208;11.174;2022-07-25T04:22:28;18.83;;;15.03;;
6177;SDS011;3122;48.208;11.174;2022-07-25T04:27:28;17.47;;;15.67;;
6177;SDS011;3122;48.208;11.174;2022-07-25T04:32:29;20.10;;;15.63;;
6177;SDS011;3122;48.208;11.174;2022-07-25T04:37:29;20.77;;;16.20;;
6177;SDS011;3122;48.208;11.174;2022-07-25T04:42:30;17.13;;;15.33;;
6177;SDS011;3122;48.208;11.174;2022-07-25T04:47:31;19.43;;;17.30;;
6177;SDS011;3122;48.208;11.174;2022-07-25T04:52:31;22.10;;;16.57;;
6177;SDS011;3122;48.208;11.174;2022-07-25T04:57:32;18.60;;;16.60;;
6177;SDS011;3122;48.208;11.174;2022-07-25T05:02:33;20.67;;;18.30;;
6177;SDS011;3122;48.208;11.174;2022-07-25T05:07:34;20.23;;;17.90;;
6177;SDS011;3122;48.208;11.174;2022-07-25T05:12:35;22.70;;;19.17;;
6177;SDS011;3122;48.208;11.174;2022-07-25T05:17:36;24.63;;;18.33;;
6177;SDS011;3122;48.208;11.174;2022-07-25T05:22:37;21.80;;;17.60;;
6177;SDS011;3122;48.208;11.174;2022-07-25T05:27:38;18.20;;;16.40;;
6177;SDS011;3122;48.208;11.174;2022-07-25T05:32:39;20.33;;;17.90;;
6177;SDS011;3122;48.208;11.174;2022-07-25T05:37:40;20.43;;;17.43;;
6177;SDS011;3122;48.208;11.174;2022-07-25T05:42:41;18.87;;;16.97;;
6177;SDS011;3122;48.208;11.174;2022-07-25T05:47:41;19.73;;;17.73;;
6177;SDS011;3122;48.208;11.174;2022-07-25T05:52:42;21.30;;;18.87;;
6177;SDS011;3122;48.208;11.174;2022-07-25T05:57:42;20.60;;;17.97;;
6177;SDS011;3122;48.208;11.174;2022-07-25T06:02:43;21.20;;;18.30;;
6177;SDS011;3122;48.208;11.174;2022-07-25T06:07:43;20.67;;;18.57;;
6177;SDS011;3122;48.208;11.174;2022-07-25T06:12:44;20.37;;;18.03;;
6177;SDS011;3122;48.208;11.174;2022-07-25T06:17:44;19.73;;;17.77;;
6177;SDS011;3122;48.208;11.174;2022-07-25T06:22:45;18.63;;;16.73;;
6177;SDS011;3122;48.208;11.174;2022-07-25T06:27:46;19.37;;;17.40;;
6177;SDS011;3122;48.208;11.174;2022-07-25T06:32:47;21.70;;;18.70;;
6177;SDS011;3122;48.208;11.174;2022-07-25T06:37:47;20.00;;;18.00;;
6177;SDS011;3122;48.208;11.174;2022-07-25T06:42:48;19.87;;;17.77;;
6177;SDS011;3122;48.208;11.174;2022-07-25T06:47:49;20.50;;;17.20;;
6177;SDS011;3122;48.208;11.174;2022-07-25T06:52:50;19.80;;;17.80;;
6177;SDS011;3122;48.208;11.174;2022-07-25T06:57:50;21.80;;;17.10;;
6177;SDS011;3122;48.208;11.174;2022-07-25T07:02:55;19.60;;;17.40;;
6177;SDS011;3122;48.208;11.174;2022-07-25T07:07:57;19.33;;;17.43;;
6177;SDS011;3122;48.208;11.174;2022-07-25T07:13:06;20.63;;;18.00;;
6177;SDS011;3122;48.208;11.174;2022-07-25T07:18:10;20.10;;;17.50;;
6177;SDS011;3122;48.208;11.174;2022-07-25T07:23:11;19.73;;;17.30;;
6177;SDS011;3122;48.208;11.174;2022-07-25T07:28:13;19.77;;;17.60;;
6177;SDS011;3122;48.208;11.174;2022-07-25T07:33:14;17.77;;;16.00;;
6177;SDS011;3122;48.208;11.174;2022-07-25T07:38:14;23.30;;;16.90;;
6177;SDS011;3122;48.208;11.174;2022-07-25T07:43:16;17.60;;;15.77;;
6177;SDS011;3122;48.208;11.174;2022-07-25T07:48:17;17.73;;;15.90;;
6177;SDS011;3122;48.208;11.174;2022-07-25T07:53:18;18.40;;;16.60;;
6177;SDS011;3122;48.208;11.174;2022-07-25T07:58:18;18.90;;;15.77;;
6177;SDS011;3122;48.208;11.174;2022-07-25T08:03:19;18.33;;;16.40;;
6177;SDS011;3122;48.208;11.174;2022-07-25T08:08:20;18.50;;;16.50;;
6177;SDS011;3122;48.208;11.174;2022-07-25T08:13:29;20.27;;;16.90;;
6177;SDS011;3122;48.208;11.174;2022-07-25T08:18:30;17.27;;;15.63;;
6177;SDS011;3122;48.208;11.174;2022-07-25T08:23:34;18.33;;;16.17;;
6177;SDS011;3122;48.208;11.174;2022-07-25T08:28:37;18.33;;;16.23;;
6177;SDS011;3122;48.208;11.174;2022-07-25T08:33:38;16.63;;;14.97;;
6177;SDS011;3122;48.208;11.174;2022-07-25T08:38:38;17.03;;;15.30;;
6177;SDS011;3122;48.208;11.174;2022-07-25T08:43:39;16.70;;;15.00;;
6177;SDS011;3122;48.208;11.174;2022-07-25T08:48:42;19.77;;;16.10;;
6177;SDS011;3122;48.208;11.174;2022-07-25T08:53:43;19.40;;;16.33;;
6177;SDS011;3122;48.208;11.174;2022-07-25T08:58:44;18.77;;;16.97;;
6177;SDS011;3122;48.208;11.174;2022-07-25T09:03:45;19.33;;;17.33;;
6177;SDS011;3122;48.208;11.174;2022-07-25T09:08:49;16.73;;;15.03;;
6177;SDS011;3122;48.208;11.174;2022-07-25T09:13:57;18.70;;;14.93;;
6177;SDS011;3122;48.208;11.174;2022-07-25T09:19:13;17.73;;;15.77;;
6177;SDS011;3122;48.208;11.174;2022-07-25T09:24:20;17.20;;;15.50;;
6177;SDS011;3122;48.208;11.174;2022-07-25T09:29:22;15.60;;;14.00;;
6177;SDS011;3122;48.208;11.174;2022-07-25T09:39:37;15.37;;;13.87;;
6177;SDS011;3122;48.208;11.174;2022-07-25T09:44:39;15.73;;;14.13;;
6177;SDS011;3122;48.208;11.174;2022-07-25T09:49:40;14.50;;;13.10;;
6177;SDS011;3122;48.208;11.174;2022-07-25T09:54:42;15.43;;;13.90;;
6177;SDS011;3122;48.208;11.174;2022-07-25T09:59:43;15.20;;;13.60;;
6177;SDS011;3122;48.208;11.174;2022-07-25T10:04:45;14.57;;;13.13;;
6177;SDS011;3122;48.208;11.174;2022-07-25T10:09:55;22.23;;;11.10;;
6177;SDS011;3122;48.208;11.174;2022-07-25T10:15:09;12.17;;;11.07;;
6177;SDS011;3122;48.208;11.174;2022-07-25T10:20:12;13.63;;;11.00;;
6177;SDS011;3122;48.208;11.174;2022-07-25T10:25:16;12.13;;;10.63;;
6177;SDS011;3122;48.208;11.174;2022-07-25T10:30:22;11.97;;;10.97;;
6177;SDS011;3122;48.208;11.174;2022-07-25T10:35:24;11.63;;;10.43;;
6177;SDS011;3122;48.208;11.174;2022-07-25T10:40:27;11.33;;;10.30;;
6177;SDS011;3122;48.208;11.174;2022-07-25T10:45:35;10.33;;;9.33;;
6177;SDS011;3122;48.208;11.174;2022-07-25T10:50:47;10.80;;;9.80;;
6177;SDS011;3122;48.208;11.174;2022-07-25T10:55:56;11.60;;;9.80;;
6177;SDS011;3122;48.208;11.174;2022-07-25T11:01:13;10.60;;;9.50;;
6177;SDS011;3122;48.208;11.174;2022-07-25T11:06:31;10.40;;;9.50;;
6177;SDS011;3122;48.208;11.174;2022-07-25T11:11:38;10.40;;;9.40;;
6177;SDS011;3122;48.208;11.174;2022-07-25T11:16:46;10.03;;;7.80;;
6177;SDS011;3122;48.208;11.174;2022-07-25T11:21:49;8.47;;;7.77;;
6177;SDS011;3122;48.208;11.174;2022-07-25T11:26:51;9.00;;;8.30;;
6177;SDS011;3122;48.208;11.174;2022-07-25T11:31:53;14.43;;;8.37;;
6177;SDS011;3122;48.208;11.174;2022-07-25T11:36:58;9.70;;;8.70;;
6177;SDS011;3122;48.208;11.174;2022-07-25T11:42:04;9.70;;;8.80;;
6177;SDS011;3122;48.208;11.174;2022-07-25T11:52:33;10.43;;;9.53;;
6177;SDS011;3122;48.208;11.174;2022-07-25T11:57:40;9.23;;;8.40;;
6177;SDS011;3122;48.208;11.174;2022-07-25T12:02:43;10.27;;;9.27;;
6177;SDS011;3122;48.208;11.174;2022-07-25T12:07:48;10.57;;;9.60;;
6177;SDS011;3122;48.208;11.174;2022-07-25T12:12:51;9.97;;;8.97;;
6177;SDS011;3122;48.208;11.174;2022-07-25T12:17:54;12.53;;;9.87;;
6177;SDS011;3122;48.208;11.174;2022-07-25T12:22:57;10.07;;;9.23;;
6177;SDS011;3122;48.208;11.174;2022-07-25T12:28:00;11.30;;;10.20;;
6177;SDS011;3122;48.208;11.174;2022-07-25T12:33:01;13.70;;;9.87;;
6177;SDS011;3122;48.208;11.174;2022-07-25T12:38:02;14.10;;;10.23;;
6177;SDS011;3122;48.208;11.174;2022-07-25T12:43:03;15.77;;;10.10;;
6177;SDS011;3122;48.208;11.174;2022-07-25T12:48:03;10.27;;;9.33;;
6177;SDS011;3122;48.208;11.174;2022-07-25T12:53:04;9.47;;;8.67;;
6177;SDS011;3122;48.208;11.174;2022-07-25T12:58:05;11.20;;;9.60;;
6177;SDS011;3122;48.208;11.174;2022-07-25T13:03:06;10.53;;;9.50;;
6177;SDS011;3122;48.208;11.174;2022-07-25T13:08:06;11.03;;;9.80;;
6177;SDS011;3122;48.208;11.174;2022-07-25T13:13:07;10.27;;;9.20;;
6177;SDS011;3122;48.208;11.174;2022-07-25T13:18:08;10.10;;;9.20;;
6177;SDS011;3122;48.208;11.174;2022-07-25T13:23:08;10.17;;;9.20;;
6177;SDS011;3122;48.208;11.174;2022-07-25T13:28:09;9.57;;;8.57;;
6177;SDS011;3122;48.208;11.174;2022-07-25T13:33:09;10.07;;;9.20;;
6177;SDS011;3122;48.208;11.174;2022-07-25T13:38:10;9.87;;;8.80;;
6177;SDS011;3122;48.208;11.174;2022-07-25T13:43:11;10.10;;;9.10;;
6177;SDS011;3122;48.208;11.174;2022-07-25T13:48:12;10.47;;;9.30;;
6177;SDS011;3122;48.208;11.174;2022-07-25T13:53:13;11.60;;;8.43;;
6177;SDS011;3122;48.208;11.174;2022-07-25T13:58:14;10.83;;;8.53;;
6177;SDS011;3122;48.208;11.174;2022-07-25T14:03:15;9.37;;;8.47;;
6177;SDS011;3122;48.208;11.174;2022-07-25T14:08:15;9.50;;;8.60;;
6177;SDS011;3122;48.208;11.174;2022-07-25T14:13:16;10.20;;;8.10;;
6177;SDS011;3122;48.208;11.174;2022-07-25T14:18:17;9.70;;;8.70;;
6177;SDS011;3122;48.208;11.174;2022-07-25T14:23:18;8.93;;;8.10;;
6177;SDS011;3122;48.208;11.174;2022-07-25T14:28:18;10.00;;;8.50;;
6177;SDS011;3122;48.208;11.174;2022-07-25T14:33:19;8.90;;;8.00;;
6177;SDS011;3122;48.208;11.174;2022-07-25T14:38:20;7.00;;;6.07;;
6177;SDS011;3122;48.208;11.174;2022-07-25T14:43:20;10.30;;;7.13;;
6177;SDS011;3122;48.208;11.174;2022-07-25T14:48:21;7.50;;;5.97;;
6177;SDS011;3122;48.208;11.174;2022-07-25T14:53:21;7.03;;;6.43;;
6177;SDS011;3122;48.208;11.174;2022-07-25T14:58:22;11.27;;;6.17;;
6177;SDS011;3122;48.208;11.174;2022-07-25T15:03:22;6.67;;;6.17;;
6177;SDS011;3122;48.208;11.174;2022-07-25T15:08:23;7.23;;;6.63;;
6177;SDS011;3122;48.208;11.174;2022-07-25T15:13:24;9.73;;;6.70;;
6177;SDS011;3122;48.208;11.174;2022-07-25T15:18:24;8.80;;;6.67;;
6177;SDS011;3122;48.208;11.174;2022-07-25T15:23:25;7.73;;;6.70;;
6177;SDS011;3122;48.208;11.174;2022-07-25T15:28:26;8.07;;;7.27;;
6177;SDS011;3122;48.208;11.174;2022-07-25T15:33:27;7.27;;;6.67;;
6177;SDS011;3122;48.208;11.174;2022-07-25T15:38:27;8.53;;;7.73;;
6177;SDS011;3122;48.208;11.174;2022-07-25T15:43:28;8.53;;;7.63;;
6177;SDS011;3122;48.208;11.174;2022-07-25T15:48:29;8.57;;;7.43;;
6177;SDS011;3122;48.208;11.174;2022-07-25T15:53:29;12.90;;;8.27;;
6177;SDS011;3122;48.208;11.174;2022-07-25T15:58:30;9.20;;;8.50;;
6177;SDS011;3122;48.208;11.174;2022-07-25T16:03:30;9.50;;;8.50;;
6177;SDS011;3122;48.208;11.174;2022-07-25T16:08:31;9.50;;;8.60;;
6177;SDS011;3122;48.208;11.174;2022-07-25T16:13:33;9.27;;;8.50;;
6177;SDS011;3122;48.208;11.174;2022-07-25T16:18:34;10.90;;;9.43;;
6177;SDS011;3122;48.208;11.174;2022-07-25T16:23:35;9.33;;;8.30;;
6177;SDS011;3122;48.208;11.174;2022-07-25T16:28:37;9.50;;;8.60;;
6177;SDS011;3122;48.208;11.174;2022-07-25T16:33:38;10.10;;;9.10;;
6177;SDS011;3122;48.208;11.174;2022-07-25T16:38:39;9.83;;;8.93;;
6177;SDS011;3122;48.208;11.174;2022-07-25T16:43:39;9.80;;;8.90;;
6177;SDS011;3122;48.208;11.174;2022-07-25T16:48:40;10.40;;;9.13;;
6177;SDS011;3122;48.208;11.174;2022-07-25T16:53:40;11.70;;;9.83;;
6177;SDS011;3122;48.208;11.174;2022-07-25T16:58:41;11.50;;;9.73;;
6177;SDS011;3122;48.208;11.174;2022-07-25T17:03:42;9.90;;;9.10;;
6177;SDS011;3122;48.208;11.174;2022-07-25T17:08:43;9.80;;;8.90;;
6177;SDS011;3122;48.208;11.174;2022-07-25T17:13:44;10.43;;;9.43;;
6177;SDS011;3122;48.208;11.174;2022-07-25T17:18:44;10.13;;;9.20;;
6177;SDS011;3122;48.208;11.174;2022-07-25T17:23:45;9.33;;;8.53;;
6177;SDS011;3122;48.208;11.174;2022-07-25T17:28:46;11.67;;;9.53;;
6177;SDS011;3122;48.208;11.174;2022-07-25T17:33:47;10.37;;;9.27;;
6177;SDS011;3122;48.208;11.174;2022-07-25T17:38:48;10.63;;;9.53;;
6177;SDS011;3122;48.208;11.174;2022-07-25T17:43:48;13.53;;;9.63;;
6177;SDS011;3122;48.208;11.174;2022-07-25T17:48:49;9.53;;;8.53;;
6177;SDS011;3122;48.208;11.174;2022-07-25T17:53:49;10.50;;;9.40;;
6177;SDS011;3122;48.208;11.174;2022-07-25T17:58:51;13.73;;;9.40;;
6177;SDS011;3122;48.208;11.174;2022-07-25T18:03:51;11.07;;;9.97;;
6177;SDS011;3122;48.208;11.174;2022-07-25T18:08:52;10.40;;;9.40;;
6177;SDS011;3122;48.208;11.174;2022-07-25T18:13:52;11.00;;;10.00;;
6177;SDS011;3122;48.208;11.174;2022-07-25T18:18:53;11.00;;;9.83;;
6177;SDS011;3122;48.208;11.174;2022-07-25T18:23:53;10.53;;;9.53;;
6177;SDS011;3122;48.208;11.174;2022-07-25T18:28:54;11.50;;;10.27;;
6177;SDS011;3122;48.208;11.174;2022-07-25T18:33:55;10.30;;;9.20;;
6177;SDS011;3122;48.208;11.174;2022-07-25T18:38:55;12.60;;;10.00;;
6177;SDS011;3122;48.208;11.174;2022-07-25T18:43:57;11.83;;;9.80;;
6177;SDS011;3122;48.208;11.174;2022-07-25T18:48:58;12.93;;;9.50;;
6177;SDS011;3122;48.208;11.174;2022-07-25T18:53:59;11.00;;;9.90;;
6177;SDS011;3122;48.208;11.174;2022-07-25T18:59:00;10.80;;;9.70;;
6177;SDS011;3122;48.208;11.174;2022-07-25T19:04:01;11.80;;;9.90;;
6177;SDS011;3122;48.208;11.174;2022-07-25T19:09:02;11.40;;;10.13;;
6177;SDS011;3122;48.208;11.174;2022-07-25T19:14:03;11.23;;;10.17;;
6177;SDS011;3122;48.208;11.174;2022-07-25T19:19:04;11.37;;;10.00;;
6177;SDS011;3122;48.208;11.174;2022-07-25T19:24:05;11.40;;;10.40;;
6177;SDS011;3122;48.208;11.174;2022-07-25T19:29:06;10.27;;;9.30;;
6177;SDS011;3122;48.208;11.174;2022-07-25T19:34:08;13.50;;;10.23;;
6177;SDS011;3122;48.208;11.174;2022-07-25T19:39:08;10.97;;;9.83;;
6177;SDS011;3122;48.208;11.174;2022-07-25T19:44:10;11.70;;;10.60;;
6177;SDS011;3122;48.208;11.174;2022-07-25T19:49:11;14.33;;;10.60;;
6177;SDS011;3122;48.208;11.174;2022-07-25T19:54:11;23.37;;;17.73;;
6177;SDS011;3122;48.208;11.174;2022-07-25T19:59:12;15.70;;;11.30;;
6177;SDS011;3122;48.208;11.174;2022-07-25T20:04:13;23.03;;;13.23;;
6177;SDS011;3122;48.208;11.174;2022-07-25T20:09:15;15.87;;;12.23;;
6177;SDS011;3122;48.208;11.174;2022-07-25T20:14:16;17.13;;;12.77;;
6177;SDS011;3122;48.208;11.174;2022-07-25T20:19:16;18.87;;;12.70;;
6177;SDS011;3122;48.208;11.174;2022-07-25T20:24:17;21.47;;;12.13;;
6177;SDS011;3122;48.208;11.174;2022-07-25T20:29:19;17.20;;;11.23;;
6177;SDS011;3122;48.208;11.174;2022-07-25T20:34:20;21.73;;;12.30;;
6177;SDS011;3122;48.208;11.174;2022-07-25T20:39:21;18.73;;;11.37;;
6177;SDS011;3122;48.208;11.174;2022-07-25T20:44:21;16.87;;;11.60;;
6177;SDS011;3122;48.208;11.174;2022-07-25T20:49:22;13.20;;;11.77;;
6177;SDS011;3122;48.208;11.174;2022-07-25T20:54:23;13.50;;;11.13;;
6177;SDS011;3122;48.208;11.174;2022-07-25T20:59:23;14.17;;;12.10;;
6177;SDS011;3122;48.208;11.174;2022-07-25T21:04:24;13.87;;;10.50;;
6177;SDS011;3122;48.208;11.174;2022-07-25T21:09:25;15.40;;;11.40;;
6177;SDS011;3122;48.208;11.174;2022-07-25T21:14:26;15.40;;;10.90;;
6177;SDS011;3122;48.208;11.174;2022-07-25T21:19:27;20.93;;;11.63;;
6177;SDS011;3122;48.208;11.174;2022-07-25T21:24:28;14.00;;;11.17;;
6177;SDS011;3122;48.208;11.174;2022-07-25T21:29:30;18.90;;;12.07;;
6177;SDS011;3122;48.208;11.174;2022-07-25T21:34:31;18.80;;;12.20;;
6177;SDS011;3122;48.208;11.174;2022-07-25T21:39:31;17.30;;;11.47;;
6177;SDS011;3122;48.208;11.174;2022-07-25T21:44:32;14.47;;;10.93;;
6177;SDS011;3122;48.208;11.174;2022-07-25T21:49:33;15.40;;;11.47;;
6177;SDS011;3122;48.208;11.174;2022-07-25T21:54:53;17.20;;;11.43;;
6177;SDS011;3122;48.208;11.174;2022-07-25T21:59:54;13.20;;;10.37;;
6177;SDS011;3122;48.208;11.174;2022-07-25T22:04:55;12.33;;;9.60;;
6177;SDS011;3122;48.208;11.174;2022-07-25T22:09:55;11.77;;;9.40;;
6177;SDS011;3122;48.208;11.174;2022-07-25T22:14:56;11.00;;;8.97;;
6177;SDS011;3122;48.208;11.174;2022-07-25T22:19:56;14.10;;;8.97;;
6177;SDS011;3122;48.208;11.174;2022-07-25T22:24:57;12.80;;;9.40;;
6177;SDS011;3122;48.208;11.174;2022-07-25T22:29:58;9.43;;;8.10;;
6177;SDS011;3122;48.208;11.174;2022-07-25T22:34:58;11.00;;;8.40;;
6177;SDS011;3122;48.208;11.174;2022-07-25T22:39:59;11.47;;;8.40;;
6177;SDS011;3122;48.208;11.174;2022-07-25T22:44:59;12.60;;;8.40;;
6177;SDS011;3122;48.208;11.174;2022-07-25T22:50:00;8.03;;;7.10;;
6177;SDS011;3122;48.208;11.174;2022-07-25T22:55:00;10.50;;;7.53;;
6177;SDS011;3122;48.208;11.174;2022-07-25T23:00:03;11.50;;;7.40;;
6177;SDS011;3122;48.208;11.174;2022-07-25T23:05:05;9.80;;;6.30;;
6177;SDS011;3122;48.208;11.174;2022-07-25T23:10:07;7.70;;;6.30;;
6177;SDS011;3122;48.208;11.174;2022-07-25T23:15:08;10.93;;;5.43;;
6177;SDS011;3122;48.208;11.174;2022-07-25T23:20:09;7.80;;;5.70;;
6177;SDS011;3122;48.208;11.174;2022-07-25T23:25:10;6.63;;;5.37;;
6177;SDS011;3122;48.208;11.174;2022-07-25T23:30:11;8.83;;;5.37;;
6177;SDS011;3122;48.208;11.174;2022-07-25T23:35:13;6.00;;;5.30;;
6177;SDS011;3122;48.208;11.174;2022-07-25T23:40:14;6.23;;;5.43;;
6177;SDS011;3122;48.208;11.174;2022-07-25T23:45:15;5.73;;;5.13;;
6177;SDS011;3122;48.208;11.174;2022-07-25T23:50:15;7.30;;;5.03;;
6177;SDS011;3122;48.208;11.174;2022-07-25T23:55:17;4.97;;;4.57;;
